Time;durP1;ratioP1;P1;durP2;ratioP2;P2;SDS_P1;SDS_P2;PMS_P1;PMS_P2;Temp;Humidity;BMP_temperature;BMP_pressure;BME280_temperature;BME280_humidity;BME280_pressure;Samples;Min_cycle;Max_cycle;Signal;HPM_P1;HPM_P2
2022/05/01 00:00:47;;;;;;;9.00;8.10;;;13.50;71.90;;;;;;4921786;29;20485;-84
2022/05/01 00:03:34;;;;;;;10.00;9.00;;;13.40;72.10;;;;;;4924154;29;20498;-83
2022/05/01 00:06:09;;;;;;;12.30;10.43;;;13.30;72.60;;;;;;4923872;29;20914;-85
2022/05/01 00:08:42;;;;;;;11.03;9.10;;;13.30;73.10;;;;;;4926787;29;20469;-83
2022/05/01 00:11:09;;;;;;;12.87;8.97;;;13.30;73.60;;;;;;4935860;29;20529;-84
2022/05/01 00:13:40;;;;;;;12.00;9.10;;;13.20;73.80;;;;;;4928711;29;20986;-83
2022/05/01 00:16:07;;;;;;;11.73;9.77;;;13.30;74.80;;;;;;4925458;29;20482;-83
2022/05/01 00:18:35;;;;;;;10.07;9.17;;;13.30;74.50;;;;;;4928107;29;20549;-83
2022/05/01 00:21:02;;;;;;;12.17;9.40;;;13.30;74.80;;;;;;4926699;29;20475;-84
2022/05/01 00:23:29;;;;;;;8.77;7.87;;;13.30;75.10;;;;;;4925889;29;20470;-86
2022/05/01 00:25:56;;;;;;;9.43;8.57;;;13.30;76.00;;;;;;4917138;29;20455;-84
2022/05/01 00:28:23;;;;;;;9.93;8.80;;;13.30;76.30;;;;;;4926075;29;20554;-85
2022/05/01 00:30:50;;;;;;;12.80;10.10;;;13.20;75.80;;;;;;4909827;29;20495;-85
2022/05/01 00:38:50;;;;;;;9.80;8.90;;;13.10;77.00;;;;;;4924152;29;20458;-85
2022/05/01 00:41:17;;;;;;;9.70;8.50;;;13.10;77.40;;;;;;4929600;29;20550;-83
2022/05/01 00:44:08;;;;;;;9.47;8.63;;;13.10;77.90;;;;;;4916746;29;20444;-87
2022/05/01 00:46:38;;;;;;;9.87;8.87;;;13.10;78.30;;;;;;4918241;29;20565;-85
2022/05/01 00:49:08;;;;;;;11.77;8.57;;;13.00;78.60;;;;;;4922790;29;20486;-83
2022/05/01 00:51:44;;;;;;;10.73;9.60;;;13.00;79.00;;;;;;4908655;29;20460;-80
2022/05/01 00:54:21;;;;;;;11.50;9.10;;;13.10;79.30;;;;;;4920180;29;20473;-83
2022/05/01 00:56:52;;;;;;;14.10;9.00;;;13.10;79.50;;;;;;4919892;29;20444;-83
2022/05/01 00:59:20;;;;;;;9.77;8.77;;;13.10;79.80;;;;;;4919793;29;20467;-83
2022/05/01 01:01:55;;;;;;;10.83;9.73;;;13.00;80.00;;;;;;4936913;29;20505;-82
2022/05/01 01:04:23;;;;;;;10.60;9.30;;;13.00;80.30;;;;;;4914007;29;21189;-81
2022/05/01 01:06:52;;;;;;;11.27;10.13;;;12.90;80.60;;;;;;4916323;29;20884;-84
2022/05/01 01:09:24;;;;;;;10.53;9.47;;;13.00;80.90;;;;;;4916138;29;20531;-83
2022/05/01 01:14:46;;;;;;;11.73;9.80;;;13.00;81.60;;;;;;4924384;29;20538;-84
2022/05/01 01:17:12;;;;;;;11.43;10.23;;;12.90;82.10;;;;;;4931741;29;20442;-89
2022/05/01 01:19:39;;;;;;;13.80;10.10;;;12.90;82.60;;;;;;4921303;29;20436;-87
2022/05/01 01:22:08;;;;;;;12.47;9.93;;;12.90;83.30;;;;;;4928751;29;20474;-81
2022/05/01 01:24:39;;;;;;;12.53;10.00;;;12.90;83.90;;;;;;4939096;29;20518;-87
2022/05/01 01:27:06;;;;;;;13.67;10.40;;;12.80;84.70;;;;;;4940479;29;20423;-88
2022/05/01 01:32:20;;;;;;;11.30;10.10;;;12.70;85.80;;;;;;4928759;29;20458;-87
2022/05/01 01:34:50;;;;;;;10.17;9.17;;;12.70;86.10;;;;;;4943127;29;20529;-87
2022/05/01 01:37:18;;;;;;;11.77;10.13;;;12.70;86.20;;;;;;4942487;29;20440;-88
2022/05/01 01:39:46;;;;;;;15.30;10.23;;;12.80;85.80;;;;;;4943248;29;20455;-87
2022/05/01 01:42:15;;;;;;;14.30;11.17;;;12.70;86.60;;;;;;4942908;29;20467;-88
2022/05/01 01:44:42;;;;;;;13.63;10.70;;;12.60;87.30;;;;;;4943481;29;20453;-86
2022/05/01 01:47:13;;;;;;;11.87;10.30;;;12.60;87.50;;;;;;4943003;29;20461;-86
2022/05/01 01:49:40;;;;;;;12.33;11.03;;;12.60;87.50;;;;;;4942046;29;20482;-85
2022/05/01 01:52:11;;;;;;;12.23;9.90;;;12.60;88.00;;;;;;4936368;29;20499;-81
2022/05/01 01:54:38;;;;;;;12.50;9.67;;;12.50;88.20;;;;;;4921172;29;20451;-87
2022/05/01 01:57:05;;;;;;;12.00;10.40;;;12.50;88.30;;;;;;4925891;29;20507;-87
2022/05/01 01:59:32;;;;;;;10.17;9.17;;;12.50;88.50;;;;;;4948460;28;20442;-86
2022/05/01 02:02:03;;;;;;;12.93;9.90;;;12.40;88.90;;;;;;4961539;28;20458;-84
2022/05/01 02:04:30;;;;;;;11.37;10.17;;;12.50;89.40;;;;;;4928642;29;20464;-82
2022/05/01 02:06:57;;;;;;;10.70;9.60;;;12.50;90.10;;;;;;4926693;29;20449;-84
2022/05/01 02:09:23;;;;;;;13.17;10.23;;;12.50;89.60;;;;;;4912221;29;20874;-85
2022/05/01 02:11:53;;;;;;;10.97;9.97;;;12.40;89.70;;;;;;4916897;29;20486;-81
2022/05/01 02:14:20;;;;;;;12.13;9.33;;;12.50;90.00;;;;;;4939738;29;20446;-84
2022/05/01 02:16:48;;;;;;;14.27;11.23;;;12.50;90.20;;;;;;4923042;29;20515;-83
2022/05/01 02:19:15;;;;;;;12.60;11.30;;;12.40;90.20;;;;;;4913721;29;20476;-83
2022/05/01 02:21:42;;;;;;;11.00;9.87;;;12.40;90.20;;;;;;4923418;29;20754;-83
2022/05/01 02:24:12;;;;;;;12.20;11.00;;;12.40;90.30;;;;;;4920620;29;20469;-83
2022/05/01 02:26:39;;;;;;;13.43;12.10;;;12.40;90.30;;;;;;4952016;28;20426;-88
2022/05/01 02:29:09;;;;;;;11.23;9.53;;;12.40;90.60;;;;;;4941760;29;20461;-83
2022/05/01 02:31:41;;;;;;;10.43;9.00;;;12.40;90.60;;;;;;4931760;29;20471;-83
2022/05/01 02:34:08;;;;;;;10.40;9.37;;;12.40;90.70;;;;;;4928796;29;20535;-84
2022/05/01 02:36:35;;;;;;;15.00;10.60;;;12.30;90.80;;;;;;4919350;29;20455;-84
2022/05/01 02:39:04;;;;;;;11.60;10.50;;;12.40;90.80;;;;;;4926987;29;20444;-87
2022/05/01 02:41:31;;;;;;;11.00;9.80;;;12.30;90.80;;;;;;4933042;29;20481;-87
2022/05/01 02:43:58;;;;;;;10.93;9.57;;;12.30;91.00;;;;;;4927269;29;20471;-83
2022/05/01 02:46:28;;;;;;;11.90;10.70;;;12.30;91.00;;;;;;4931628;29;20467;-84
2022/05/01 02:48:55;;;;;;;14.43;10.33;;;12.30;91.10;;;;;;4942691;29;20457;-84
2022/05/01 02:51:21;;;;;;;12.10;10.60;;;12.30;91.10;;;;;;4927082;29;20494;-86
2022/05/01 02:53:48;;;;;;;11.87;10.63;;;12.30;91.20;;;;;;4934130;29;20473;-86
2022/05/01 02:56:16;;;;;;;17.30;11.63;;;12.20;91.20;;;;;;4929708;29;20522;-84
2022/05/01 02:58:43;;;;;;;11.53;10.00;;;12.30;91.30;;;;;;4932596;29;20458;-83
2022/05/01 03:01:12;;;;;;;13.20;10.10;;;12.30;91.30;;;;;;4912300;29;20480;-83
2022/05/01 03:03:39;;;;;;;12.00;10.80;;;12.20;91.30;;;;;;4919953;29;20467;-85
2022/05/01 03:06:05;;;;;;;14.20;9.70;;;12.20;91.30;;;;;;4914355;29;20933;-86
2022/05/01 03:08:32;;;;;;;12.93;10.37;;;12.10;91.50;;;;;;4917077;29;20954;-84
2022/05/01 03:11:01;;;;;;;11.00;9.90;;;12.10;91.60;;;;;;4929948;29;20497;-85
2022/05/01 03:13:28;;;;;;;12.30;10.30;;;12.10;91.70;;;;;;4937147;29;20439;-87
2022/05/01 03:15:55;;;;;;;13.57;12.00;;;12.00;91.80;;;;;;4927867;29;20447;-87
2022/05/01 03:23:52;;;;;;;11.10;10.00;;;12.00;92.40;;;;;;4928833;29;20960;-85
2022/05/01 03:26:19;;;;;;;11.80;10.70;;;11.90;92.30;;;;;;4923922;29;20471;-86
2022/05/01 03:28:46;;;;;;;11.20;9.70;;;11.90;92.40;;;;;;4930816;29;20522;-86
2022/05/01 03:31:16;;;;;;;11.63;10.53;;;11.80;92.60;;;;;;4922846;29;20487;-86
2022/05/01 03:33:44;;;;;;;11.30;10.20;;;11.80;92.60;;;;;;4929322;29;20455;-86
2022/05/01 03:36:11;;;;;;;11.73;10.63;;;11.80;92.80;;;;;;4923792;29;20466;-85
2022/05/01 03:38:47;;;;;;;13.60;12.20;;;11.70;92.90;;;;;;4936007;29;20442;-86
2022/05/01 03:41:19;;;;;;;12.63;10.83;;;11.70;93.00;;;;;;4932358;29;20486;-85
2022/05/01 03:43:49;;;;;;;14.87;11.47;;;11.70;93.10;;;;;;4922742;29;20452;-84
2022/05/01 03:46:15;;;;;;;12.80;11.10;;;11.70;93.20;;;;;;4910226;29;20531;-87
2022/05/01 03:48:42;;;;;;;12.27;11.13;;;11.80;93.30;;;;;;4912748;29;20451;-84
2022/05/01 03:51:09;;;;;;;14.83;11.20;;;11.80;93.20;;;;;;4917640;29;21054;-83
2022/05/01 03:53:45;;;;;;;13.30;11.10;;;11.70;93.30;;;;;;4928167;29;20454;-84
2022/05/01 03:56:12;;;;;;;17.13;12.00;;;11.70;93.30;;;;;;4938330;29;20477;-83
2022/05/01 03:58:38;;;;;;;12.70;11.33;;;11.70;93.40;;;;;;4920585;29;20451;-84
2022/05/01 04:01:08;;;;;;;12.90;11.40;;;11.70;93.40;;;;;;4913208;29;20497;-85
2022/05/01 04:03:35;;;;;;;11.73;10.33;;;11.70;93.40;;;;;;4915921;29;20486;-84
2022/05/01 04:06:02;;;;;;;15.43;12.33;;;11.60;93.50;;;;;;4917958;29;20463;-83
2022/05/01 04:08:29;;;;;;;12.70;10.70;;;11.60;93.70;;;;;;4933427;29;20538;-87
2022/05/01 04:10:56;;;;;;;11.73;10.53;;;11.50;93.70;;;;;;4917729;29;20491;-84
2022/05/01 04:13:22;;;;;;;13.27;11.97;;;11.70;93.60;;;;;;4926337;29;20451;-82
2022/05/01 04:15:49;;;;;;;12.70;11.40;;;11.80;93.50;;;;;;4931529;29;20448;-86
2022/05/01 04:18:16;;;;;;;13.30;11.90;;;11.70;93.40;;;;;;4928308;29;20475;-87
2022/05/01 04:20:46;;;;;;;12.60;10.87;;;11.60;93.60;;;;;;4934444;29;20499;-85
2022/05/01 04:23:12;;;;;;;13.80;12.40;;;11.70;94.00;;;;;;4942827;29;20922;-82
2022/05/01 04:25:42;;;;;;;13.33;11.30;;;12.00;93.30;;;;;;4931615;29;20580;-86
2022/05/01 04:28:16;;;;;;;12.73;10.50;;;11.80;93.10;;;;;;4936090;29;20443;-85
2022/05/01 04:30:50;;;;;;;14.93;11.10;;;11.60;93.40;;;;;;4921906;29;20851;-85
2022/05/01 04:33:17;;;;;;;12.73;11.47;;;11.60;93.80;;;;;;4950570;29;20487;-85
2022/05/01 04:35:48;;;;;;;12.23;10.87;;;11.50;93.90;;;;;;4933834;29;20514;-86
2022/05/01 04:38:17;;;;;;;14.57;10.60;;;11.60;94.00;;;;;;4935099;29;20463;-85
2022/05/01 04:40:50;;;;;;;17.80;11.50;;;11.80;93.80;;;;;;4933533;29;20450;-84
2022/05/01 04:43:19;;;;;;;11.67;10.40;;;11.80;93.50;;;;;;4926781;29;20459;-83
2022/05/01 04:45:54;;;;;;;13.03;11.67;;;11.80;93.60;;;;;;4925467;29;20466;-82
2022/05/01 04:48:22;;;;;;;12.13;10.80;;;11.70;93.60;;;;;;4938032;29;20463;-84
2022/05/01 04:50:50;;;;;;;14.27;12.03;;;11.80;93.80;;;;;;4931891;29;20496;-89
2022/05/01 04:53:18;;;;;;;12.10;10.83;;;11.70;93.90;;;;;;4929055;29;20513;-85
2022/05/01 04:55:46;;;;;;;13.70;12.20;;;11.60;94.20;;;;;;4919346;29;21022;-83
2022/05/01 04:58:15;;;;;;;16.77;12.23;;;11.90;94.80;;;;;;4924971;29;20439;-84
2022/05/01 05:00:49;;;;;;;13.87;11.87;;;12.00;94.30;;;;;;4927126;29;20517;-85
2022/05/01 05:03:19;;;;;;;13.77;12.07;;;12.00;94.40;;;;;;4945232;29;20438;-83
2022/05/01 05:05:49;;;;;;;13.03;11.70;;;11.90;94.70;;;;;;4940166;29;20458;-85
2022/05/01 05:11:11;;;;;;;14.53;13.03;;;11.20;95.80;;;;;;4915019;29;20483;-83
2022/05/01 05:13:37;;;;;;;13.00;11.63;;;11.10;96.10;;;;;;4923587;29;20447;-85
2022/05/01 05:16:12;;;;;;;13.63;12.20;;;11.10;96.20;;;;;;4934531;29;20469;-83
2022/05/01 05:18:42;;;;;;;13.63;12.23;;;11.00;96.40;;;;;;4931870;29;20469;-84
2022/05/01 05:21:09;;;;;;;12.70;11.17;;;11.00;96.70;;;;;;4930103;29;20563;-85
2022/05/01 05:23:35;;;;;;;16.27;12.00;;;10.90;96.80;;;;;;4926822;29;20462;-85
2022/05/01 05:26:02;;;;;;;12.70;11.40;;;11.20;96.50;;;;;;4929313;29;20470;-83
2022/05/01 05:28:29;;;;;;;14.97;12.47;;;11.10;96.30;;;;;;4949206;29;20481;-84
2022/05/01 05:30:56;;;;;;;13.27;11.97;;;11.30;96.20;;;;;;4934690;29;20490;-85
2022/05/01 05:33:24;;;;;;;13.97;11.87;;;11.30;96.20;;;;;;4918227;29;20451;-87
2022/05/01 05:35:51;;;;;;;13.80;11.37;;;11.30;96.10;;;;;;4930437;29;20510;-84
2022/05/01 05:38:18;;;;;;;13.03;11.60;;;11.20;96.10;;;;;;4931352;29;20877;-85
2022/05/01 05:40:45;;;;;;;14.63;12.37;;;11.40;96.40;;;;;;4929525;29;20882;-86
2022/05/01 05:43:11;;;;;;;13.70;12.30;;;11.40;96.20;;;;;;4929238;29;20450;-83
2022/05/01 05:45:38;;;;;;;13.27;11.87;;;11.60;96.00;;;;;;4915741;29;20459;-85
2022/05/01 05:48:06;;;;;;;15.30;12.30;;;11.60;95.60;;;;;;4922178;29;20427;-85
2022/05/01 05:50:33;;;;;;;17.47;12.10;;;11.60;95.50;;;;;;4941027;29;20465;-85
2022/05/01 05:53:00;;;;;;;14.80;12.53;;;11.60;95.90;;;;;;4961372;28;20450;-82
2022/05/01 05:55:33;;;;;;;17.00;13.10;;;11.60;96.40;;;;;;4950402;28;20454;-82
2022/05/01 05:58:00;;;;;;;14.93;12.83;;;11.60;96.40;;;;;;4940260;29;20466;-85
2022/05/01 06:00:27;;;;;;;14.57;13.00;;;11.60;96.60;;;;;;4936561;29;20730;-85
2022/05/01 06:02:53;;;;;;;13.80;12.30;;;11.80;96.70;;;;;;4941250;29;20498;-87
2022/05/01 06:05:20;;;;;;;15.43;12.13;;;11.90;96.60;;;;;;4939772;29;20487;-87
2022/05/01 06:07:47;;;;;;;12.87;11.43;;;12.00;96.30;;;;;;4943803;29;20462;-86
2022/05/01 06:10:14;;;;;;;12.00;10.70;;;11.80;96.50;;;;;;4931321;29;20448;-85
2022/05/01 06:12:44;;;;;;;14.03;12.10;;;11.70;96.80;;;;;;4931986;29;20471;-86
2022/05/01 06:15:16;;;;;;;13.20;11.83;;;11.80;97.10;;;;;;4943112;29;20471;-85
2022/05/01 06:17:43;;;;;;;15.20;13.13;;;12.00;96.70;;;;;;4934246;29;20461;-84
2022/05/01 06:20:10;;;;;;;14.33;12.80;;;11.90;96.40;;;;;;4931484;29;21003;-85
2022/05/01 06:22:37;;;;;;;14.70;12.47;;;11.90;96.60;;;;;;4936219;29;20478;-85
2022/05/01 06:25:04;;;;;;;17.93;12.80;;;11.90;96.60;;;;;;4927694;29;20520;-85
2022/05/01 06:27:31;;;;;;;15.30;13.03;;;12.30;96.10;;;;;;4931266;29;20469;-86
2022/05/01 06:29:58;;;;;;;13.33;11.93;;;12.80;94.30;;;;;;4927277;29;20447;-88
2022/05/01 06:32:29;;;;;;;14.70;12.27;;;12.60;93.70;;;;;;4932930;29;20533;-86
2022/05/01 06:34:56;;;;;;;14.33;12.70;;;12.50;94.20;;;;;;4939712;29;20453;-87
2022/05/01 06:37:25;;;;;;;13.80;12.40;;;12.50;94.10;;;;;;4932337;29;20533;-83
2022/05/01 06:39:55;;;;;;;13.67;12.33;;;12.40;94.40;;;;;;4938673;29;20463;-86
2022/05/01 06:42:28;;;;;;;13.47;12.17;;;12.30;94.40;;;;;;4940043;29;20471;-87
2022/05/01 06:44:58;;;;;;;14.83;13.33;;;12.30;94.10;;;;;;4937741;29;20520;-86
2022/05/01 06:47:30;;;;;;;14.40;12.90;;;12.40;94.00;;;;;;4926407;29;20482;-86
2022/05/01 06:50:05;;;;;;;14.93;12.97;;;12.40;93.60;;;;;;4934106;29;20458;-87
2022/05/01 06:52:32;;;;;;;14.07;12.67;;;12.60;93.40;;;;;;4936470;29;20501;-85
2022/05/01 06:55:07;;;;;;;14.80;12.30;;;12.60;93.10;;;;;;4933638;29;20483;-86
2022/05/01 06:57:37;;;;;;;14.30;12.90;;;12.40;93.20;;;;;;4919245;29;20466;-87
2022/05/01 07:00:07;;;;;;;15.90;13.27;;;12.50;93.50;;;;;;4932676;29;20463;-86
2022/05/01 07:02:43;;;;;;;14.83;13.27;;;13.40;92.30;;;;;;4922826;29;20472;-84
2022/05/01 07:05:10;;;;;;;12.23;11.00;;;13.40;91.00;;;;;;4926582;29;20467;-84
2022/05/01 07:07:40;;;;;;;13.43;12.03;;;13.30;91.40;;;;;;4942271;29;20482;-84
2022/05/01 07:10:10;;;;;;;12.40;11.10;;;13.40;91.40;;;;;;4932960;29;20454;-84
2022/05/01 07:12:37;;;;;;;13.63;12.20;;;13.60;91.20;;;;;;4929568;29;20487;-83
2022/05/01 07:15:19;;;;;;;13.43;12.03;;;14.50;89.30;;;;;;4910968;29;20514;-85
2022/05/01 07:17:47;;;;;;;14.17;12.80;;;15.40;84.70;;;;;;4929454;29;20438;-86
2022/05/01 07:20:19;;;;;;;14.10;12.80;;;16.20;81.30;;;;;;4942128;29;20456;-85
2022/05/01 07:22:53;;;;;;;13.17;11.80;;;16.10;80.80;;;;;;4931795;29;20479;-86
2022/05/01 07:25:20;;;;;;;14.13;12.43;;;16.50;80.00;;;;;;4921816;29;20976;-88
2022/05/01 07:27:57;;;;;;;13.73;12.37;;;18.10;72.50;;;;;;4933762;29;20557;-87
2022/05/01 07:30:24;;;;;;;12.93;11.73;;;19.90;65.50;;;;;;4934280;29;20485;-84
2022/05/01 07:32:53;;;;;;;15.30;12.90;;;22.10;60.00;;;;;;4927604;29;20552;-85
2022/05/01 07:35:28;;;;;;;13.70;12.30;;;23.60;54.30;;;;;;4918172;29;20491;-88
2022/05/01 07:37:59;;;;;;;13.80;12.40;;;24.00;52.00;;;;;;4921191;29;20462;-87
2022/05/01 07:40:29;;;;;;;12.07;11.07;;;23.90;51.60;;;;;;4946429;29;20455;-87
2022/05/01 07:43:00;;;;;;;13.50;12.30;;;24.70;51.10;;;;;;4918520;29;20476;-83
2022/05/01 07:45:35;;;;;;;13.60;12.60;;;26.10;48.10;;;;;;4928878;29;20451;-86
2022/05/01 07:48:08;;;;;;;15.43;14.20;;;26.80;45.80;;;;;;4924018;29;20573;-86
2022/05/01 07:50:35;;;;;;;15.20;13.70;;;27.30;44.20;;;;;;4926364;29;20455;-83
2022/05/01 07:53:05;;;;;;;13.23;12.03;;;27.30;43.30;;;;;;4920808;29;20450;-85
2022/05/01 07:55:39;;;;;;;13.17;11.97;;;27.30;42.70;;;;;;4955426;29;20483;-85
2022/05/01 07:58:09;;;;;;;13.93;12.70;;;26.70;42.20;;;;;;4920260;29;20534;-86
2022/05/01 08:00:43;;;;;;;14.37;13.00;;;27.10;42.50;;;;;;4910292;29;20527;-84
2022/05/01 08:05:58;;;;;;;16.10;14.43;;;26.50;41.30;;;;;;4925847;29;20444;-83
2022/05/01 08:08:26;;;;;;;16.43;13.70;;;25.10;43.20;;;;;;4903266;29;20455;-82
2022/05/01 08:10:53;;;;;;;15.30;13.97;;;23.70;45.20;;;;;;4914824;29;20438;-89
2022/05/01 08:13:19;;;;;;;15.50;14.10;;;23.00;46.60;;;;;;4940764;29;20513;-89
2022/05/01 08:15:46;;;;;;;16.70;15.10;;;22.80;46.80;;;;;;4939723;29;20487;-89
2022/05/01 08:21:05;;;;;;;14.90;13.70;;;21.90;48.00;;;;;;4928931;29;20471;-85
2022/05/01 08:23:32;;;;;;;16.03;14.73;;;21.50;48.30;;;;;;4931254;29;20447;-85
2022/05/01 08:26:03;;;;;;;14.27;13.00;;;20.80;49.10;;;;;;4931239;29;20458;-85
2022/05/01 08:28:30;;;;;;;14.53;13.23;;;20.40;49.70;;;;;;4915713;29;20431;-83
2022/05/01 08:30:57;;;;;;;14.67;13.20;;;19.70;50.80;;;;;;4909689;29;20451;-84
2022/05/01 08:33:24;;;;;;;15.67;14.23;;;19.50;51.70;;;;;;4921215;29;20479;-82
2022/05/01 08:35:52;;;;;;;14.60;12.80;;;19.80;52.00;;;;;;4932992;29;20465;-84
2022/05/01 08:38:20;;;;;;;15.77;14.37;;;19.50;52.40;;;;;;4923308;29;20444;-83
2022/05/01 08:40:50;;;;;;;15.20;13.90;;;20.40;53.00;;;;;;4927077;29;20451;-85
2022/05/01 08:43:18;;;;;;;13.83;12.63;;;21.80;50.00;;;;;;4930830;29;20498;-83
2022/05/01 08:46:13;;;;;;;14.27;12.97;;;22.00;48.70;;;;;;4934078;29;20474;-85
2022/05/01 08:48:56;;;;;;;14.23;10.77;;;21.80;47.80;;;;;;4931509;29;20465;-86
2022/05/01 08:51:23;;;;;;;12.43;11.43;;;21.50;48.50;;;;;;4921978;29;20487;-83
2022/05/01 08:53:51;;;;;;;11.63;10.50;;;20.70;48.50;;;;;;4941462;29;20937;-85
2022/05/01 08:56:19;;;;;;;13.17;11.87;;;20.70;49.10;;;;;;4931505;29;20458;-85
2022/05/01 08:58:47;;;;;;;12.70;11.50;;;20.50;49.30;;;;;;4926574;29;20485;-86
2022/05/01 09:01:14;;;;;;;11.27;10.10;;;20.70;49.20;;;;;;4946532;29;20453;-84
2022/05/01 09:03:44;;;;;;;10.93;10.00;;;20.60;49.30;;;;;;4934981;29;20522;-83
2022/05/01 09:06:12;;;;;;;11.73;10.73;;;20.70;49.10;;;;;;4934144;29;20474;-85
2022/05/01 09:08:40;;;;;;;14.67;10.87;;;20.60;49.80;;;;;;4925951;29;20489;-84
2022/05/01 09:13:53;;;;;;;10.37;9.33;;;20.30;49.10;;;;;;4916511;29;20463;-85
2022/05/01 09:16:20;;;;;;;9.83;8.47;;;20.20;49.40;;;;;;4919318;29;20539;-83
2022/05/01 09:18:47;;;;;;;8.50;7.70;;;20.00;47.80;;;;;;4927900;29;20485;-85
2022/05/01 09:21:14;;;;;;;7.43;6.83;;;20.30;47.50;;;;;;4932925;29;20482;-84
2022/05/01 09:23:46;;;;;;;8.50;7.70;;;20.90;45.70;;;;;;4930182;29;20458;-83
2022/05/01 09:26:14;;;;;;;9.50;7.47;;;20.70;44.20;;;;;;4931304;29;20463;-84
2022/05/01 09:28:51;;;;;;;9.13;8.00;;;21.10;44.50;;;;;;4931295;29;20469;-84
2022/05/01 09:31:52;;;;;;;8.37;7.73;;;21.60;43.20;;;;;;4925778;29;20506;-83
2022/05/01 09:34:21;;;;;;;9.07;8.17;;;21.90;43.30;;;;;;4897909;29;20459;-86
2022/05/01 09:36:48;;;;;;;8.90;8.20;;;22.20;43.00;;;;;;4914645;29;20466;-85
2022/05/01 09:39:27;;;;;;;9.43;8.53;;;22.00;42.40;;;;;;4929331;29;20546;-82
2022/05/01 09:41:55;;;;;;;9.93;9.10;;;21.90;41.40;;;;;;4927761;29;20486;-83
2022/05/01 09:44:22;;;;;;;9.40;8.60;;;21.50;41.50;;;;;;4943200;29;20552;-84
2022/05/01 09:46:54;;;;;;;10.23;9.03;;;21.10;42.10;;;;;;4928063;29;20459;-83
2022/05/01 09:49:20;;;;;;;11.23;10.20;;;20.90;42.70;;;;;;4924603;29;20477;-84
2022/05/01 09:51:56;;;;;;;10.93;9.83;;;20.80;42.90;;;;;;4926381;29;20487;-83
2022/05/01 09:54:27;;;;;;;9.60;8.80;;;20.90;42.50;;;;;;4922942;29;20450;-83
2022/05/01 09:56:59;;;;;;;10.40;8.90;;;20.70;42.80;;;;;;4929060;29;20494;-81
2022/05/01 09:59:28;;;;;;;9.60;8.70;;;20.60;42.80;;;;;;4927613;29;20462;-82
2022/05/01 10:02:02;;;;;;;9.53;8.73;;;20.10;44.00;;;;;;4938604;29;20476;-85
2022/05/01 10:04:34;;;;;;;10.57;9.57;;;19.90;45.60;;;;;;4928901;29;20489;-84
2022/05/01 10:07:02;;;;;;;9.60;8.73;;;19.80;45.30;;;;;;4913126;29;20460;-83
2022/05/01 10:09:34;;;;;;;10.40;9.50;;;19.60;45.70;;;;;;4919147;29;20447;-83
2022/05/01 10:12:07;;;;;;;9.60;8.70;;;19.30;46.40;;;;;;4920237;29;20490;-85
2022/05/01 10:14:35;;;;;;;9.77;8.33;;;19.00;47.40;;;;;;4918259;29;20982;-83
2022/05/01 10:17:02;;;;;;;8.63;7.70;;;18.60;47.50;;;;;;4917946;29;20463;-86
2022/05/01 10:19:31;;;;;;;10.67;9.47;;;18.30;48.10;;;;;;4925549;29;21031;-84
2022/05/01 10:22:00;;;;;;;11.50;9.03;;;18.20;48.60;;;;;;4929251;29;20486;-85
2022/05/01 10:24:28;;;;;;;9.97;9.10;;;19.00;48.50;;;;;;4938923;29;20877;-88
2022/05/01 10:27:04;;;;;;;10.43;8.70;;;19.20;47.90;;;;;;4938694;29;20442;-85
2022/05/01 10:33:15;;;;;;;9.87;8.87;;;19.40;48.10;;;;;;4921502;29;20497;-84
2022/05/01 10:35:59;;;;;;;10.33;9.33;;;19.80;47.10;;;;;;4932207;29;20458;-84
2022/05/01 10:38:53;;;;;;;10.30;9.40;;;20.10;46.20;;;;;;4925618;29;20483;-85
2022/05/01 10:41:22;;;;;;;10.53;9.53;;;19.70;46.60;;;;;;4914055;29;20483;-85
2022/05/01 10:43:58;;;;;;;10.93;9.93;;;20.00;46.90;;;;;;4922876;29;20999;-85
2022/05/01 10:46:24;;;;;;;10.43;9.53;;;20.60;45.80;;;;;;4924233;29;20538;-87
2022/05/01 10:49:00;;;;;;;11.07;10.07;;;20.40;46.40;;;;;;4919776;29;20469;-84
2022/05/01 10:51:30;;;;;;;10.43;9.63;;;21.30;46.80;;;;;;4921084;29;20504;-85
2022/05/01 10:54:15;;;;;;;11.47;10.37;;;20.90;45.10;;;;;;4919537;29;20446;-84
2022/05/01 10:56:48;;;;;;;10.93;9.73;;;20.90;45.20;;;;;;4924709;29;20467;-80
2022/05/01 10:59:43;;;;;;;10.70;9.57;;;20.60;45.50;;;;;;4926747;29;20445;-85
2022/05/01 11:02:38;;;;;;;10.40;9.50;;;20.10;46.90;;;;;;4936104;29;20516;-84
2022/05/01 11:05:07;;;;;;;10.00;9.10;;;21.00;46.30;;;;;;4924991;29;20526;-82
2022/05/01 11:07:39;;;;;;;10.23;9.23;;;20.90;45.40;;;;;;4919875;29;20444;-88
2022/05/01 11:10:10;;;;;;;10.17;9.17;;;20.60;45.60;;;;;;4932446;29;20515;-82
2022/05/01 11:12:40;;;;;;;9.93;9.03;;;21.90;44.80;;;;;;4915135;29;20857;-82
2022/05/01 11:15:10;;;;;;;10.80;9.87;;;21.90;44.60;;;;;;4930102;29;20474;-84
2022/05/01 11:17:39;;;;;;;10.90;9.83;;;21.50;44.00;;;;;;4917991;29;20462;-84
2022/05/01 11:20:29;;;;;;;9.93;9.03;;;21.50;44.10;;;;;;4917792;29;21036;-84
2022/05/01 11:23:00;;;;;;;10.00;9.00;;;21.00;44.80;;;;;;4921415;29;20531;-84
2022/05/01 11:25:32;;;;;;;8.50;7.80;;;21.20;45.00;;;;;;4924629;29;20532;-85
2022/05/01 11:28:02;;;;;;;9.47;8.67;;;21.10;44.40;;;;;;4912863;29;20542;-84
2022/05/01 11:30:35;;;;;;;8.53;7.80;;;21.50;44.60;;;;;;4921853;29;20454;-84
2022/05/01 11:33:10;;;;;;;9.00;8.17;;;21.20;44.40;;;;;;4930558;28;21027;-87
2022/05/01 11:35:56;;;;;;;9.47;8.47;;;21.20;44.90;;;;;;4923316;29;20514;-85
2022/05/01 11:38:54;;;;;;;7.90;7.20;;;20.70;44.90;;;;;;4934506;29;20546;-86
2022/05/01 11:41:42;;;;;;;7.87;7.27;;;20.50;45.40;;;;;;4920711;29;20479;-83
2022/05/01 11:44:19;;;;;;;8.53;7.70;;;20.50;45.10;;;;;;4918914;29;20491;-82
2022/05/01 11:46:47;;;;;;;9.00;7.53;;;20.10;45.70;;;;;;4930099;29;20522;-84
2022/05/01 11:49:14;;;;;;;9.10;8.27;;;19.80;46.40;;;;;;4931707;29;20483;-87
2022/05/01 11:51:41;;;;;;;10.20;8.90;;;20.00;46.20;;;;;;4921464;29;20463;-85
2022/05/01 11:54:09;;;;;;;8.60;7.80;;;20.50;45.60;;;;;;4921275;29;20909;-84
2022/05/01 12:02:26;;;;;;;9.30;8.50;;;20.40;45.90;;;;;;4917140;29;20491;-84
2022/05/01 12:05:04;;;;;;;9.90;9.20;;;20.20;46.30;;;;;;4919506;29;20455;-86
2022/05/01 12:07:32;;;;;;;9.60;8.53;;;19.90;46.20;;;;;;4915468;29;20472;-86
2022/05/01 12:09:58;;;;;;;8.47;7.77;;;20.00;46.40;;;;;;4918905;29;20541;-84
2022/05/01 12:12:29;;;;;;;10.37;8.53;;;20.00;46.40;;;;;;4914656;29;20498;-83
2022/05/01 12:15:02;;;;;;;10.10;9.03;;;19.80;46.70;;;;;;4922965;29;20515;-82
2022/05/01 12:17:38;;;;;;;9.10;8.40;;;19.70;46.70;;;;;;4921326;29;20466;-83
2022/05/01 12:20:20;;;;;;;9.80;8.90;;;19.90;47.20;;;;;;4924427;29;20450;-85
2022/05/01 12:22:53;;;;;;;9.50;8.70;;;20.30;46.30;;;;;;4929506;29;20480;-84
2022/05/01 12:25:24;;;;;;;8.70;7.90;;;19.90;46.90;;;;;;4929525;29;20454;-83
2022/05/01 12:27:51;;;;;;;8.83;7.93;;;19.80;47.30;;;;;;4936896;29;20435;-84
2022/05/01 12:30:22;;;;;;;9.83;8.83;;;19.70;47.20;;;;;;4928857;29;20444;-84
2022/05/01 12:32:55;;;;;;;9.07;8.17;;;19.40;47.70;;;;;;4938619;29;20483;-88
2022/05/01 12:35:26;;;;;;;10.80;9.83;;;19.00;48.20;;;;;;4937566;29;20435;-85
2022/05/01 12:38:01;;;;;;;10.03;9.13;;;18.90;48.70;;;;;;4934255;29;20447;-83
2022/05/01 12:43:50;;;;;;;8.67;7.97;;;19.20;48.40;;;;;;4938894;29;20437;-87
2022/05/01 12:43:51;;;;;;;9.60;8.80;;;19.20;48.30;;;;;;4958185;28;20453;-84
2022/05/01 12:46:30;;;;;;;8.10;7.50;;;19.40;48.30;;;;;;4954658;28;20464;-88
2022/05/01 12:49:02;;;;;;;9.90;9.03;;;19.40;49.00;;;;;;4941154;29;20466;-87
2022/05/01 12:51:41;;;;;;;8.90;8.10;;;19.40;48.40;;;;;;4935991;29;20463;-81
2022/05/01 12:54:09;;;;;;;9.27;8.47;;;19.50;48.60;;;;;;4923187;29;20486;-88
2022/05/01 12:56:36;;;;;;;9.20;8.30;;;19.70;48.00;;;;;;4933713;29;20471;-87
2022/05/01 12:59:30;;;;;;;8.77;7.97;;;19.70;48.00;;;;;;4936252;28;20454;-87
2022/05/01 13:01:58;;;;;;;8.93;8.13;;;19.70;48.30;;;;;;4945858;28;20485;-89
2022/05/01 13:04:29;;;;;;;8.60;7.80;;;19.70;47.90;;;;;;4926290;29;20469;-87
2022/05/01 13:06:57;;;;;;;9.40;8.50;;;19.60;48.30;;;;;;4934740;28;20454;-85
2022/05/01 13:09:51;;;;;;;10.10;9.07;;;19.60;48.50;;;;;;4936635;29;20466;-85
2022/05/01 13:12:31;;;;;;;11.03;10.03;;;19.50;48.00;;;;;;4937001;29;20534;-86
2022/05/01 13:15:04;;;;;;;9.70;8.80;;;19.30;48.50;;;;;;4934643;29;20446;-84
2022/05/01 13:17:35;;;;;;;10.23;9.33;;;19.00;49.00;;;;;;4934042;29;20541;-86
2022/05/01 13:20:05;;;;;;;9.47;8.60;;;19.30;49.30;;;;;;4923220;29;20528;-85
2022/05/01 13:22:31;;;;;;;10.33;9.33;;;19.40;48.30;;;;;;4917306;29;20474;-83
2022/05/01 13:25:06;;;;;;;9.13;8.43;;;19.20;48.70;;;;;;4934628;29;20466;-84
2022/05/01 13:27:33;;;;;;;9.50;8.70;;;18.90;48.60;;;;;;4936722;29;20419;-84